x

9410840 - Santa Monica Pier (icac1) Weather Station

2:30 - Tue 3rd May 2016 All times are PDT. -7 hours from GMT.

  • Wind
    5mph, 6mph gusts
  • Sea Temp 63°f
  • Aire Temp 60°f
  • Sea Pressure 1014.8mb
  • 9410840 - Santa Monica Pier
  • 9410840 - Santa Monica Pier

More Historic Weather Station data

Upgrade to MSW Pro to gain access to the past 30 days of data for over 8000 Wavebouys and Weather Stations around the globe.

Join Pro

Comparision Forecast

View Surf forecast
   
mar 05/03 2:30 5 6 mph 1014.8mb 63f 60f
2:24 5 6 mph 1014.8mb 63f 59f
2:18 6
mph
1014.9mb 63f 59f
2:12 5
mph
1014.9mb 63f 59f
2:06 3
mph
1015mb 63f 59f
2:00 2
mph
1015.1mb 63f 59f
1:54 2
mph
1015.1mb 63f 59f
1:48 2
mph
1015.1mb 63f 59f
1:42 2
mph
1015.2mb 63f 59f
1:36 2
mph
1015.4mb 63f 59f
1:30 2
mph
1015.4mb 63f 59f
1:24 2 3 mph 1015.5mb 63f 59f
1:18 2 3 mph 1015.5mb 63f 59f
1:12 3
mph
1015.5mb 63f 59f
1:06 2 5 mph 1015.6mb 63f 59f
1:00 5 6 mph 1015.6mb 63f 59f
12:54 5 6 mph 1015.7mb 63f 59f
12:48 6 7 mph 1015.6mb 63f 59f
12:42 6 8 mph 1015.7mb 63f 59f
12:36 5 6 mph 1015.8mb 63f 59f
12:30 6 8 mph 1015.8mb 63f 59f
12:24 7 9 mph 1015.9mb 63f 59f
12:18 7 9 mph 1015.8mb 63f 59f
12:12 8 10 mph 1015.8mb 63f 59f
12:06 8 9 mph 1015.8mb 63f 59f
12:00 8 9 mph 1015.7mb 63f 59f
lun 05/02 11:54 7 8 mph 1015.7mb 63f 59f
11:48 7 8 mph 1015.7mb 63f 59f
11:42 7 8 mph 1015.7mb 63f 59f
11:36 6 7 mph 1015.7mb 63f 59f
11:30 6 9 mph 1015.7mb 63f 59f
11:24 9 10 mph 1015.7mb 63f 59f
11:18 8 11 mph 1015.7mb 63f 59f
11:12 10 13 mph 1015.6mb 63f 59f
11:06 9 11 mph 1015.6mb 63f 60f
11:00 9 11 mph 1015.6mb 63f 59f
10:54 9 11 mph 1015.5mb 63f 59f
10:48 8 11 mph 1015.5mb 63f 59f
10:42 9 13 mph 1015.4mb 63f 59f
10:36 9 13 mph 1015.4mb 63f 59f
10:30 9 11 mph 1015.4mb 63f 59f
10:24 9 10 mph 1015.3mb 63f 59f
10:18 9 10 mph 1015.3mb 63f 59f
10:12 9 11 mph 1015.2mb 63f 59f
10:06 9 11 mph 1015.2mb 63f 59f
10:00 8 11 mph 1015.2mb 63f 60f
9:54 9 14 mph 1015.2mb 63f 60f
9:48 10 13 mph 1015.2mb 63f 60f
9:42 8 11 mph 1015.1mb 63f 60f
9:36 10 13 mph 1015mb 63f 60f
9:30 8 10 mph 1015mb 63f 60f
9:24 10 11 mph 1014.9mb 64f 60f
9:18 9 11 mph 1014.8mb 63f 60f
9:12 8 10 mph 1014.7mb 63f 60f
9:06 7 10 mph 1014.6mb 63f 60f
9:00 8 10 mph 1014.5mb 63f 60f
8:54 8 9 mph 1014.4mb 63f 60f
8:48 8 9 mph 1014.3mb 63f 60f
8:42 8 10 mph 1014.3mb 63f 60f
8:36 8 9 mph 1014.3mb 64f 60f
8:30 7 9 mph 1014.2mb 64f 60f
8:24 8 9 mph 1014.1mb 63f 60f
8:18 6 9 mph 1014.1mb 63f 60f
8:12 8 9 mph 1014.2mb 63f 60f
8:06 7
mph
1014.1mb 63f 60f
8:00 5
mph
1014.1mb 63f 60f
7:54 5 6 mph 1014.1mb 63f 60f
7:48 3 5 mph 1014mb 63f 60f
7:42  -  mph 1014mb 63f -
7:36  -  mph 1013.9mb 64f -
7:30 6 8 mph 1014mb 64f 60f
7:24 8 9 mph 1013.9mb 64f 60f
7:18 9 11 mph 1014mb 64f 60f
7:12  -  mph 1014mb 64f 60f
7:06  -  mph 1014mb 64f 60f
7:00  -  mph 1014mb 64f 60f
6:54  -  mph 1014mb 64f 59f
6:48  -  mph 1014mb 64f 59f
6:42 15 17 mph 1014mb 64f -
6:36 16 17 mph 1014.1mb 64f -
6:30 15 17 mph 1014.2mb 64f -
6:24 16 18 mph 1014.2mb 64f -
6:18 15 18 mph 1014.3mb 64f -
6:12  -  mph 1014.3mb 64f 59f
6:06  -  mph 1014.3mb 64f 59f
6:00  -  mph 1014.3mb 64f 59f
5:54  -  mph 1014.3mb 64f 59f
5:48  -  mph 1014.4mb 64f 59f
5:42 15 17 mph 1014.3mb 64f -
5:36 14 16 mph 1014.5mb 64f -
5:30 15 17 mph 1014.6mb 64f 59f
5:24 13 16 mph 1014.6mb 64f 59f
5:18  -  mph 1014.6mb 64f 59f
5:12  -  mph 1014.6mb 64f 59f
5:06  -  mph 1014.6mb 64f 59f
5:00  -  mph 1014.6mb 64f 59f
4:54  -  mph 1014.6mb 64f 59f
4:48  -  mph 1014.6mb 64f 59f
4:42  -  mph 1014.6mb - -
4:36  -  mph 1014.7mb - -
4:30  -  mph - 64f -
4:24  -  mph - 63f -
4:18  -  mph - 63f -
4:12 16 18 mph 1014.7mb 63f -
4:06 16 18 mph 1014.7mb 63f -
4:00 16 18 mph 1014.8mb 63f 59f
3:54 16 18 mph 1014.8mb 63f 59f
3:48 15 20 mph 1015mb 63f 59f
3:42  -  mph 1015mb - -
3:36  -  mph 1015.1mb - -
3:30  -  mph 1015.2mb 63f -
3:24  -  mph 1015.3mb 63f -
3:18  -  mph 1015.3mb 63f 59f
3:12  -  mph 1015.4mb 63f 58f
3:06  -  mph 1015.4mb 63f 58f
3:00  -  mph 1015.5mb 63f 58f
2:54  -  mph 1015.7mb 63f 58f
2:48  -  mph 1015.7mb 63f 58f
2:42  -  mph 1015.8mb 63f -
2:36  -  mph 1015.8mb 63f -
2:30 16 18 mph 1015.8mb 63f 58f
2:24 16 18 mph 1015.9mb 63f 58f
2:18 17 18 mph 1016mb 63f 58f
2:12 17 18 mph 1016.2mb 63f 58f
2:06 17 20 mph 1016.2mb 63f 58f
2:00 17 18 mph 1016.3mb 63f 58f
1:54 16 18 mph 1016.3mb 63f 58f
1:48 17 18 mph 1016.3mb 63f 58f
1:42 16 20 mph 1016.4mb 63f 58f
1:36 16 17 mph 1016.4mb 63f 58f
1:30 16 18 mph 1016.4mb 63f 58f
1:24 17 18 mph 1016.4mb 63f 58f
1:18 16 17 mph 1016.5mb 63f 58f
1:12 16 17 mph 1016.5mb 63f 58f
1:06 16 17 mph 1016.6mb 63f 58f
1:00 16 17 mph 1016.6mb 63f 58f
12:54 15 17 mph 1016.7mb 63f 58f
12:48 15 17 mph 1016.8mb 63f 59f
12:42 15 16 mph 1016.8mb 63f 58f
12:36 15 16 mph 1016.9mb 63f 58f
12:30 13 15 mph 1017mb 63f 58f
12:24 13 14 mph 1017mb 63f 58f
12:18 13 14 mph 1017.1mb 63f 58f
12:12 13 14 mph 1017.2mb 63f 58f
12:06 13 14 mph 1017.2mb 63f 58f
12:00 13 14 mph 1017.4mb 63f 58f
11:54 11 14 mph 1017.4mb 63f 58f
11:48 11 13 mph 1017.5mb 63f 58f
11:42 11 13 mph 1017.6mb 63f 58f
11:36 10 11 mph 1017.6mb 63f 58f
11:30 10 11 mph 1017.6mb 63f 59f
11:24 10 13 mph 1017.6mb 63f 58f
11:18 10 11 mph 1017.6mb 63f 58f
11:12 9 10 mph 1017.6mb - 59f
11:06 9
mph
1017.6mb - 59f
11:00 8 9 mph 1017.7mb 63f 59f
10:54 8 9 mph 1017.7mb 63f 59f
10:48 7 9 mph 1017.7mb 63f 59f
10:42 7 8 mph 1017.7mb 62f 58f
10:36 6 8 mph 1017.8mb 62f 58f
10:30 7 8 mph 1017.7mb 62f 59f
10:24 6 7 mph 1017.7mb 63f 58f
10:18 7 9 mph 1017.8mb 62f 58f
10:12 7 8 mph 1017.8mb 62f 58f
10:06 6 8 mph 1017.8mb 62f 58f
10:00 7 8 mph 1017.8mb 62f 58f
9:54 7 8 mph 1017.8mb 62f 58f
9:48 7 8 mph 1017.8mb 62f 58f
9:42 7 8 mph 1017.8mb 62f 58f
9:36 6 7 mph 1017.8mb 62f 58f
9:30 6 7 mph 1017.8mb 62f 58f
9:24 6 7 mph 1017.7mb 62f 58f
9:18 6 7 mph 1017.7mb 62f 58f
9:12 6 7 mph 1017.8mb 62f 58f
9:06 7 8 mph 1017.7mb 62f 58f
9:00 6 7 mph 1017.7mb 62f 58f
8:54 6 8 mph 1017.7mb 62f 58f
8:48 6 7 mph 1017.6mb 62f 58f
8:42 6 7 mph 1017.5mb 62f 58f
8:36 6 7 mph 1017.5mb 62f 58f
8:30 6 8 mph 1017.5mb 62f 58f
8:24 6 7 mph 1017.5mb 62f 58f
8:18 6 8 mph 1017.4mb 62f 58f
8:12 6 7 mph 1017.3mb 62f 58f
8:06 7 8 mph 1017.4mb 62f 58f
8:00 6 8 mph 1017.3mb 62f 58f
7:54 7 8 mph 1017.3mb 62f 58f
7:48 6 7 mph 1017.3mb 62f 58f
7:42 6 7 mph 1017.2mb 62f 58f
7:36 6 7 mph 1017.1mb 62f 57f
7:30 5 6 mph 1017.1mb 62f 57f
7:24 3 6 mph 1017mb 62f 57f
7:18 3 6 mph 1017mb 62f 57f
7:12 3 5 mph 1016.9mb 62f 57f
7:06 3 5 mph 1016.9mb 62f 57f
7:00 3 6 mph 1016.8mb 62f 57f
6:54 3 5 mph 1016.8mb 62f 57f
6:48 3
mph
1016.7mb 62f 56f
6:42 2 5 mph 1016.7mb 62f -
6:36 3
mph
1016.7mb 62f -
6:30 2 3 mph 1016.6mb 62f 56f
6:24 3 5 mph 1016.5mb 62f 56f
6:18 3 5 mph 1016.4mb 62f 56f
6:12 5 6 mph 1016.3mb 62f 56f
6:06 5 6 mph 1016.2mb 62f 56f
6:00 5 6 mph 1016.2mb 62f 56f
5:54 5 6 mph 1016.2mb 62f 56f
5:48 3 5 mph 1016.2mb 62f 56f
5:42 2 5 mph 1016.1mb 62f 56f
5:36 2 3 mph 1016mb 62f 56f
5:30 3 5 mph 1016mb 62f 56f
5:24 5 6 mph 1016mb 62f 56f
5:18 5 6 mph 1016mb 62f 56f
5:12 5
mph
1016.1mb 62f 56f
5:06 2 6 mph 1016.1mb 62f 57f
5:00 3 6 mph 1016.1mb 62f 57f
4:54 5 6 mph 1016.1mb 62f 57f
4:48 3 6 mph 1016.2mb 62f 57f
4:42 5 6 mph 1016.2mb 63f 57f
4:36 3 5 mph 1016.1mb 63f 57f
4:30 3 5 mph 1016.1mb 63f 57f
4:24 3 5 mph 1016.1mb 63f 56f
4:18 5 6 mph 1016.1mb 63f 56f
4:12 5 6 mph 1016.1mb 63f 57f
4:06 3 5 mph 1016.1mb 63f 57f
4:00 3
mph
1016mb 63f 57f
3:54 2 3 mph 1016.1mb 63f 57f
3:48 3 5 mph 1016.1mb 63f 57f
3:42 2 5 mph 1016.1mb 63f 57f
3:36 3 5 mph 1016.1mb 63f 57f
3:30 3 5 mph 1016.1mb 63f 57f
3:24 3 5 mph 1016.1mb 63f 57f
3:18 2 3 mph 1016.1mb 63f 57f
3:12 3
mph
1016.1mb 63f 57f
3:06 2 3 mph 1016.2mb 63f 57f
3:00 2 3 mph 1016.2mb 63f 57f
2:54 2 3 mph 1016.2mb 63f 57f
2:48 2 3 mph 1016.1mb 63f 57f
2:42 2 5 mph 1016.1mb 63f 57f
2:36 3 5 mph 1016.2mb 63f 57f
2:30 3
mph
1016.2mb 63f 58f
2:24 3 5 mph 1016.2mb 63f 58f
2:18 3 6 mph 1016.2mb 63f 58f
2:12 3 5 mph 1016.3mb 63f 58f
2:06 3 5 mph 1016.2mb 63f 58f
2:00 5 6 mph 1016.2mb 63f 58f
1:54 3 5 mph 1016.3mb 63f 58f
1:48 2 3 mph 1016.3mb 63f 58f
1:42 2 3 mph 1016.4mb 63f 58f
1:36 2 3 mph 1016.5mb 63f 58f
1:30  -  1 mph 1016.4mb 63f 58f
1:24 1 2 mph 1016.5mb 63f 58f
1:18  -  1 mph 1016.4mb 63f 58f
1:12 2
mph
1016.4mb 63f 58f
1:06 1 2 mph 1016.4mb 63f 58f
1:00 2 3 mph 1016.4mb 63f 58f
12:54 2 3 mph 1016.4mb 63f 58f
12:48 3
mph
1016.4mb 63f 58f
12:42  -  1 mph 1016.4mb 63f 58f
12:36  -  2 mph 1016.4mb 63f 58f
12:30  -  2 mph 1016.4mb 63f 58f
12:24 1 2 mph 1016.5mb 63f 58f
12:18  -  3 mph 1016.5mb 63f 58f
12:12 2
mph
1016.5mb 63f 58f
12:06 2 5 mph 1016.6mb 63f 58f
12:00 2 3 mph 1016.7mb 63f 58f
dom 05/01 11:54 2 5 mph 1016.7mb 63f 58f
11:48 3 5 mph 1016.7mb 63f 58f
11:42 5 6 mph 1016.6mb - -
11:36 5 6 mph 1016.5mb - -
11:30 5 6 mph 1016.4mb 63f 58f
11:24 5 6 mph 1016.5mb 63f 58f
11:18 3 5 mph 1016.4mb 63f 58f
11:12 3 5 mph 1016.4mb 63f 58f
11:06 3 5 mph 1016.4mb 63f 58f
11:00 3 5 mph 1016.4mb 63f 58f
10:54 5
mph
1016.4mb 63f 58f
10:48 3 5 mph 1016.4mb 63f 58f
10:42 3 5 mph - - -
10:36 3
mph
- - -
10:30 3 6 mph 1016.3mb 63f 58f
10:24 5 6 mph 1016.2mb 63f 58f
10:18 5 6 mph 1016.2mb 63f 58f
10:12 6
mph
1016.3mb 63f 58f
10:06 6 7 mph 1016.3mb 63f 58f
10:00 6 7 mph 1016.3mb 63f 58f
9:54 7 8 mph 1016.2mb 63f 58f
9:48 7 8 mph 1016.2mb 63f 58f
9:42 6 7 mph 1016.1mb 63f 58f
9:36 6 8 mph 1016mb 63f 58f
9:30 7
mph
1015.9mb 63f 58f
9:24 6 7 mph 1015.8mb 63f 58f
9:18 6 7 mph 1015.7mb 63f 58f
9:12 6 7 mph 1015.7mb 63f 58f
9:06 6 7 mph 1015.7mb 63f 58f
9:00 6 8 mph 1015.6mb 63f 58f
8:54 6 7 mph 1015.5mb 63f 58f
8:48 6 7 mph - - -
8:42 6 7 mph 1015.3mb 63f 58f
8:36 6 7 mph 1015.2mb 63f 58f
8:30 6 9 mph 1015.2mb 63f 58f
8:24 7 8 mph 1014.9mb 63f 58f
8:18 7 9 mph 1014.9mb 63f 58f
8:12 8 9 mph 1014.8mb 63f 58f
8:06 7 9 mph 1014.7mb 64f 58f
8:00  -  mph 1014.6mb 64f 58f
7:54  -  mph 1014.5mb 64f 58f
7:48  -  mph 1014.4mb 64f 58f
7:42  -  mph 1014.4mb 64f -
7:36  -  mph 1014.3mb 64f -
7:30  -  mph 1014.2mb 64f -
7:24  -  mph 1014.1mb 64f -
7:18  -  mph 1014mb 64f -
7:12  -  mph 1013.8mb 64f -
7:06  -  mph 1013.8mb 64f -
7:00 9 11 mph 1013.7mb 64f 58f
6:54 9 10 mph 1013.8mb 64f 59f
6:48 10 11 mph 1013.7mb 64f 58f
6:42  -  mph 1013.7mb 64f -
6:36  -  mph 1013.7mb 64f -
6:30  -  mph - 64f -
6:24  -  mph - 64f -
6:18  -  mph - 64f -
6:12 10 13 mph 1013.6mb 64f 59f
6:06 10 11 mph 1013.7mb 64f 59f
6:00  -  mph 1013.8mb 64f 59f
5:54  -  mph 1013.7mb 64f 59f
5:48  -  mph 1013.7mb 64f 59f
5:42  -  mph 1013.7mb 64f 60f
5:36  -  mph 1013.6mb 64f 59f
5:30 11 14 mph 1013.6mb 64f -
5:24 13 15 mph 1013.6mb 64f -
5:18 13 14 mph 1013.5mb 64f -
5:12  -  mph - 64f -
5:06  -  mph - 64f -
5:00  -  mph - 64f -
4:54  -  mph - 64f -
4:48  -  mph 1013.4mb - -
4:42  -  mph 1013.4mb - -
4:36  -  mph 1013.5mb - -
4:30 14 15 mph 1013.4mb 64f 59f
4:24 14 15 mph 1013.5mb 64f 60f
4:18 14 15 mph 1013.5mb 64f 60f
4:12 15 16 mph 1013.4mb 64f -
4:06 14 15 mph 1013.4mb 64f -
4:00  -  mph 1013.5mb 64f 60f
3:54  -  mph 1013.4mb 64f 60f
3:48  -  mph 1013.4mb 64f 60f
3:42  -  mph 1013.4mb - -
3:36  -  mph 1013.5mb - -
3:30  -  mph 1013.4mb 63f 60f
3:24  -  mph 1013.5mb 64f 60f
3:18  -  mph 1013.5mb 64f 60f
3:12 8 9 mph 1013.5mb 64f -
3:06 8 9 mph 1013.6mb 64f -
3:00 7 8 mph 1013.7mb 64f 60f
2:54 7 8 mph 1013.7mb 64f 61f
2:48  -  mph 1013.8mb 63f -
2:42  -  mph 1013.9mb 63f -
2:36  -  mph 1013.9mb 63f -
2:30 7 9 mph 1013.8mb 63f 60f
2:24 7 9 mph 1013.8mb 63f 60f
2:18 8 9 mph 1013.9mb 63f 60f
2:12 7 8 mph 1014mb 63f 60f
2:06 7 8 mph 1014mb 63f 60f
2:00 7 9 mph 1014mb 63f 60f
1:54 7 9 mph 1014mb 63f 60f
1:48 7 9 mph 1014.1mb 63f 60f
1:42 7 10 mph 1014mb 63f 60f
1:36 7 9 mph 1014mb 63f 60f
1:30 8 9 mph 1014mb 63f 60f
1:24 8 9 mph 1014mb 62f 60f
1:18 7 9 mph 1013.9mb 63f 60f
1:12 7 9 mph 1014mb 62f 60f
1:06 8 9 mph 1014mb 62f 60f
1:00 7 8 mph 1014mb 62f 60f
12:54 7 9 mph 1014mb 62f 60f
12:48 7 8 mph 1014mb 62f 60f
12:42 7 8 mph 1013.9mb 62f 60f
12:36 7 8 mph 1013.9mb 62f 60f
12:30 8 9 mph 1013.9mb 62f 60f
12:24 8 10 mph 1013.9mb 62f 60f
12:18 8 11 mph 1014mb 62f 60f
12:12 10 11 mph 1013.9mb 62f 60f
12:06 10 11 mph 1013.9mb 62f 60f
12:00 10
mph
1013.9mb 62f 60f
11:54 10 11 mph 1013.8mb 62f 60f
11:48 10
mph
1013.8mb 62f 60f
11:42 9 10 mph 1013.8mb 62f 60f
11:36 8 9 mph 1013.9mb 62f 60f
11:30 8 9 mph 1013.8mb 62f 60f
11:24 8 9 mph 1013.9mb 61f 60f
11:18 7 8 mph 1013.9mb 61f 60f
11:12 7 8 mph 1013.8mb 61f 60f
11:06 7 9 mph 1013.8mb 61f 60f
11:00 8
mph
1013.8mb 61f 60f
10:54 8 9 mph 1013.7mb 61f 60f
10:48 9 10 mph 1013.7mb 61f 60f
10:42 9 10 mph 1013.7mb 61f 60f
10:36 9 10 mph 1013.8mb 61f 60f
10:30 9
mph
1013.7mb 61f 60f
10:24 8 9 mph 1013.7mb 61f 60f
10:18 9 10 mph 1013.7mb 61f 60f
10:12 9 10 mph 1013.7mb 61f 60f
10:06 9
mph
1013.6mb 61f 60f
10:00 8
mph
1013.6mb 61f 60f
9:54 8 9 mph 1013.6mb 61f 60f
9:48 9 10 mph 1013.6mb 61f 61f
9:42 9
mph
1013.6mb 61f 61f
9:36 7 9 mph 1013.6mb 61f 62f
9:30 5 8 mph 1013.5mb 61f 63f
9:24 3 6 mph 1013.5mb 61f 64f
9:18 6 8 mph 1013.4mb 61f 63f
9:12 3 9 mph 1013.4mb 61f 64f
9:06 5 8 mph 1013.4mb 61f 63f
9:00 5 9 mph 1013.4mb 61f 63f
8:54 5 9 mph 1013.3mb 61f 62f
8:48 2 6 mph 1013.2mb 61f 62f
8:42 5 8 mph 1013.1mb 62f 62f
8:36 9 11 mph 1013.2mb 62f 61f
8:30 7 9 mph 1013.1mb 62f 61f
8:24 6 9 mph 1013.2mb 62f 61f
8:18 9 10 mph 1013.1mb 62f 61f
8:12 6 8 mph 1013.1mb 62f 61f
8:06 6 8 mph 1013.1mb 62f 60f
8:00 6 8 mph 1013mb 62f 60f
7:54 5 7 mph 1012.9mb 62f 60f
7:48 6 7 mph 1012.9mb 62f 60f
7:42 6 8 mph 1012.8mb - -
7:36 7 9 mph 1012.7mb - -
7:30 6 9 mph 1012.6mb 62f 59f
7:24 6 8 mph 1012.6mb 62f 59f
7:18 6 9 mph 1012.5mb 62f 59f
7:12 7 8 mph 1012.5mb 62f 59f
7:06 5 8 mph 1012.5mb 62f 59f
7:00 3 7 mph 1012.4mb 62f 59f
6:54 6 7 mph 1012.3mb 62f 59f
6:48 6 8 mph 1012.2mb 62f 59f
6:42 5 6 mph 1012.1mb 62f 59f
6:36 5 6 mph 1011.9mb 62f 59f
6:30 6 7 mph 1011.9mb 62f 58f
6:24 6
mph
1011.8mb 62f 58f
6:18 5 6 mph 1011.7mb 62f 58f
6:12 5 7 mph 1011.6mb 62f 58f
6:06 5 7 mph 1011.5mb 62f 58f
6:00 5 8 mph 1011.5mb 62f 58f
5:54 6 7 mph 1011.4mb 62f 58f
5:48 6 9 mph 1011.4mb 62f 58f
5:42 6 8 mph 1011.4mb 62f 58f
5:36 6 7 mph 1011.4mb 62f 58f
5:30 7 8 mph 1011.3mb 62f 58f
5:24 7 9 mph 1011.2mb 62f 58f
5:18 6 8 mph 1011.2mb 62f 58f
5:12 7 9 mph 1011.2mb 62f 58f
5:06 7 8 mph 1011.2mb 62f 58f
5:00 6 8 mph 1011.2mb 62f 58f
4:54 7 9 mph 1011.1mb 62f 58f
4:48 7 8 mph 1011mb 62f 58f
4:42 7 9 mph 1011mb 62f 58f
4:36 6 8 mph 1011mb 62f 58f
4:30 7 9 mph 1010.9mb 62f 58f
4:24 7 9 mph 1010.9mb 62f 57f
4:18 6 8 mph 1010.9mb 62f 57f
4:12 6 8 mph 1010.9mb 62f 57f
4:06 7 8 mph 1010.9mb 62f 57f
4:00 6 8 mph 1010.9mb 62f 57f
3:54 7 8 mph 1010.8mb 62f 57f
3:48 6 8 mph 1010.9mb 62f 57f
3:42 6 8 mph 1010.8mb 62f 57f
3:36 5 7 mph 1010.7mb 62f 57f
3:30 6 8 mph 1010.7mb 62f 57f
3:24 6 7 mph 1010.6mb 62f 57f
3:18 6 7 mph 1010.7mb 62f 57f
3:12 5 6 mph 1010.6mb 62f 57f
3:06 5 6 mph 1010.8mb 62f 57f
3:00 5 6 mph 1010.7mb 62f 57f
2:54 5 6 mph 1010.7mb 62f 57f
2:48 6
mph
1010.6mb 62f 57f
2:42 5 6 mph 1010.6mb 62f 58f
2:36 6
mph
1010.6mb 62f 58f
2:30 5
mph
1010.6mb 62f 58f
2:24 3 5 mph 1010.6mb 62f 58f
2:18 6
mph
1010.6mb 62f 58f
2:12 6 7 mph 1010.7mb 62f 57f
2:06 7
mph
1010.7mb 62f 57f
2:00 5 6 mph 1010.8mb 62f 57f
1:54 3 5 mph 1010.8mb 62f 57f
1:48 5 7 mph 1010.9mb 62f 58f
1:42 6 7 mph 1010.9mb 62f 58f
1:36 6
mph
1010.9mb 62f 58f
1:30 5 7 mph 1011mb 62f 58f
1:24 5 6 mph 1011mb 62f 58f
1:18 3 6 mph 1011mb 62f 58f
1:12 6 7 mph 1011mb 62f 58f
1:06 5 6 mph 1011mb 62f 58f
1:00 6
mph
1011.1mb 62f 58f
12:54 5 6 mph 1011.2mb 62f 58f
12:48 3 5 mph 1011.2mb 62f 58f
12:42 5 6 mph 1011mb 62f 58f
12:36 3 6 mph 1011.1mb 62f 58f
12:30 3 6 mph 1011.1mb 62f 58f
12:24 3 5 mph 1011.1mb 62f 58f
12:18 2 5 mph 1011.1mb 62f 58f
12:12 5 6 mph 1011.1mb 62f 58f
12:06 5 6 mph 1011.1mb 62f 58f
12:00 3 5 mph 1011mb 62f 58f
sáb 04/30 11:54  -  3 mph 1011mb 62f 59f
11:48 3
mph
1011mb 62f 59f
11:42 2
mph
1010.9mb 62f 59f
11:36 2 3 mph 1010.9mb 62f 58f
11:30 2 3 mph 1010.8mb 62f 59f
11:24 2
mph
1010.8mb 62f 58f
11:18 1 2 mph 1010.8mb 62f 58f
11:12 2
mph
1010.8mb 62f 59f
11:06 1 2 mph 1010.8mb 62f 59f
11:00 2
mph
1010.7mb 62f 58f
10:54 1 2 mph 1010.8mb 62f 58f
10:48  -  2 mph 1010.8mb 62f 58f
10:42  -  mph 1010.8mb 62f 58f
10:36  -  mph 1010.7mb 62f 59f
10:30 2
mph
1010.6mb 62f 59f
10:24 1 5 mph 1010.6mb 62f 59f
10:18 3 5 mph 1010.5mb 62f 59f
10:12 3 5 mph 1010.5mb 62f 59f
10:06 3 5 mph 1010.6mb 62f 59f
10:00 5
mph
1010.6mb 62f 59f
9:54 5 6 mph 1010.5mb 62f 59f
9:48 6 7 mph 1010.4mb 62f 59f
9:42 7 8 mph 1010.2mb 62f 59f
9:36 7 8 mph 1010.2mb 62f 59f
9:30 7 8 mph 1010.2mb 62f 59f
9:24 7 8 mph 1010.2mb 62f 59f
9:18 7 8 mph 1010.1mb 62f 59f
9:12 7 8 mph 1010mb 62f 59f
9:06 6 7 mph 1010mb 62f 59f
9:00 6 7 mph 1009.9mb 62f 59f
8:54 6 7 mph 1009.8mb 62f 59f
8:48 5 6 mph 1009.7mb 62f 59f
8:42 3 5 mph 1009.6mb 62f 59f
8:36 2
mph
1009.8mb 62f 58f
8:30  -  3 mph 1009.9mb 62f 58f
8:24 2 3 mph 1009.8mb 62f 58f
8:18 1 3 mph 1009.6mb 62f 58f
8:12 2 3 mph 1009.6mb 62f 58f
8:06 2 5 mph 1009.5mb 62f 58f
8:00  -  mph - 62f -
7:54  -  mph - 62f -
7:48  -  mph - 62f -
7:42  -  mph 1009.5mb 62f -
7:36  -  mph 1009.4mb 62f -
7:30  -  mph 1009.4mb 62f -
7:24  -  mph 1009.4mb 62f -
7:18  -  mph 1009.3mb 62f -
7:12  -  mph 1009.4mb - 58f
7:06  -  mph 1009.5mb - 58f
7:00 5 6 mph 1009.2mb 62f 58f
6:54 5 7 mph 1009.2mb 62f 58f
6:48 5 6 mph 1009.3mb 62f 58f
6:42 6 10 mph 1009.2mb 62f -
6:36 8 9 mph 1009.1mb 62f -
6:30  -  mph 1009.1mb - -
6:24  -  mph 1009mb - -
6:18  -  mph 1009mb - -
6:12 10 11 mph 1008.9mb 62f -
6:06 10 13 mph 1008.9mb 62f -
6:00 10 11 mph 1008.9mb 63f 59f
5:54 8 9 mph 1009mb 63f 59f
5:48 7 10 mph 1009mb 63f 59f
5:42 9 10 mph 1009.1mb 63f -
5:36 10 11 mph 1009.1mb 63f -
5:30  -  mph 1009.1mb 63f 58f
5:24  -  mph 1009.3mb 63f 58f
5:18  -  mph 1009.2mb 63f 58f
5:12 11 14 mph 1009.2mb 63f -
5:06 13 14 mph 1009.2mb 62f -
5:00  -  mph 1009.2mb 62f 58f
4:54  -  mph 1009.2mb 62f 58f
4:48  -  mph 1009.3mb 62f 58f
4:42  -  mph 1009.2mb - -
4:36  -  mph 1009.2mb - -
4:00  -  mph - 62f 58f
3:54  -  mph - 62f 58f
3:48  -  mph - 62f 58f
3:42  -  mph - 62f 58f
3:36  -  mph - 62f 58f
3:30 11 16 mph 1009.4mb 62f 58f
3:24 13 15 mph 1009.5mb 62f 58f
3:18 14 15 mph 1009.6mb 62f 58f
3:12 14 16 mph 1009.5mb 62f -
3:06 11 13 mph 1009.7mb 62f -
3:00  -  mph 1009.8mb 62f 58f
2:54  -  mph 1009.8mb 62f 57f
2:48  -  mph 1009.8mb 62f 58f
2:42  -  mph 1010mb - -
2:36  -  mph 1010mb - -
2:30 11 13 mph 1010.1mb 62f 57f
2:24 11 13 mph 1010mb 62f 57f
2:18 11 13 mph 1010mb 62f 57f
2:12 11 13 mph 1010mb 62f 57f
2:06 9 11 mph 1010mb 62f 57f
2:00 11 14 mph 1010mb 62f 57f
1:54 11 14 mph 1010.1mb 62f 57f
1:48 11 13 mph 1010.1mb 62f 57f
1:42 13 14 mph 1010.1mb 62f 57f
1:36 11 14 mph 1010.2mb 62f 57f
1:30 13 15 mph 1010.1mb 62f 57f
1:24 13 14 mph 1010.1mb 62f 57f
1:18 11 14 mph 1010.2mb 62f 57f
1:12 13 14 mph 1010.2mb 62f 57f
1:06 13 15 mph 1010.2mb 62f 57f
1:00 14
mph
1010.2mb 62f 57f
12:54 13 15 mph 1010.2mb 62f 57f
12:48 13 14 mph 1010.3mb 62f 57f
12:42 11 15 mph 1010.3mb 62f 57f
12:36 14 15 mph 1010.3mb 61f 57f
12:30 13 15 mph 1010.4mb 61f 57f
12:24 14 15 mph 1010.4mb 61f 57f
12:18 11 13 mph 1010.5mb 61f 57f
12:12 10 13 mph 1010.6mb 61f 57f
12:06 13 15 mph 1010.4mb 61f 57f
12:00 11 14 mph 1010.6mb 61f 57f
11:54 13 14 mph 1010.6mb 61f 57f
11:48 11 13 mph 1010.6mb 61f 57f
11:42 10 13 mph 1010.6mb 61f 57f
11:36 10 13 mph 1010.6mb 61f 57f
11:30 10 13 mph 1010.6mb 61f 57f
11:24 10 11 mph 1010.6mb 61f 58f
11:18 10 11 mph 1010.7mb 61f 58f
11:12 10 11 mph 1010.7mb 61f 57f
11:06 9 10 mph 1010.7mb 61f 58f
11:00 9 10 mph 1010.6mb 61f 58f
10:54 8 9 mph 1010.6mb 61f 58f
10:48 7 8 mph 1010.6mb 61f 58f
10:42  -  mph 1010.6mb 61f 58f
10:36  -  mph 1010.6mb 61f 58f
10:30 7 8 mph 1010.5mb 61f 58f
10:24 8
mph
1010.5mb 61f 58f
10:18 8 9 mph 1010.5mb 61f 58f
10:12 8
mph
1010.5mb 61f 58f
10:06 7 8 mph 1010.5mb 61f 58f
10:00 7 8 mph 1010.4mb 61f 57f
9:54 7 8 mph 1010.5mb 61f 57f
9:48 7 8 mph 1010.5mb 61f 57f
9:42 7
mph
1010.6mb 61f 57f
9:36 6 7 mph 1010.7mb 61f 57f
9:30 7
mph
1010.8mb 61f 57f
9:24 6 7 mph 1010.8mb 61f 58f
9:18 6
mph
1010.9mb 61f 58f
9:12 6 8 mph 1010.8mb 61f 58f
9:06 6
mph
1010.8mb 61f 57f
9:00 5
mph
1010.9mb 61f 58f
8:54 3 5 mph 1011mb 61f 58f
8:48 3 5 mph 1011mb 61f 57f
8:42 5
mph
1010.9mb 61f 57f
8:36 3 5 mph 1010.8mb 61f 58f
8:30 3 6 mph 1010.9mb 61f 57f
8:24 5 6 mph 1010.9mb 61f 57f
8:18 5
mph
1010.8mb 61f 58f
8:12 3 5 mph 1010.8mb 61f 58f
8:06 3 5 mph 1010.7mb 61f 58f
8:00 3
mph
1010.7mb 61f 58f
7:54 1 2 mph 1010.7mb 61f 58f
7:48 2
mph
1010.6mb - -
7:42 3
mph
1010.6mb - -
7:36 1 2 mph 1010.6mb - -
7:30  -  1 mph 1010.6mb 61f 58f
7:24  -  1 mph 1010.6mb 61f 58f
7:18 1 2 mph 1010.5mb 61f 57f
7:12 2 3 mph 1010.8mb 60f 57f
7:06  -  3 mph 1010.4mb 60f 57f
7:00 1 5 mph 1010.5mb 60f 57f
6:54 5 6 mph 1010.2mb 60f 56f
6:48  -  2 mph 1010.6mb 60f 57f
6:42 1 2 mph 1010.7mb 60f 56f
6:36 2 5 mph 1010.7mb 60f 56f
6:30 2
mph
1010.6mb 60f 56f
6:24 2 3 mph 1010.3mb 60f 56f
6:18 5 9 mph 1010mb 60f 56f
6:12 6 7 mph 1009.5mb 60f 56f
6:06 5
mph
1009.8mb 60f 56f
6:00 5 6 mph 1009.9mb 60f 56f
5:54 3 5 mph 1010mb 60f 56f
5:48 2 3 mph 1010mb 60f 56f
5:42 2 5 mph 1009.9mb 60f 56f
5:36 3 6 mph 1010.1mb 60f 56f
5:30 5 6 mph 1010.1mb 60f 56f
5:24 3
mph
1010.1mb 60f 56f
5:18 3 6 mph 1010.1mb 60f 56f
5:12 6 7 mph 1010.1mb 60f 56f
5:06 6
mph
1010.3mb 60f 56f
5:00 6
mph
1010.3mb 60f 56f
4:54 6 7 mph 1010.3mb 60f 56f
4:48 6 8 mph 1010.3mb 60f 56f
4:42 8 9 mph 1010.3mb 60f 56f
4:36 8 10 mph 1010.3mb 60f 56f
4:30 9 11 mph 1010.2mb 60f 56f
4:24 11 13 mph 1010.1mb 60f 56f
4:18 11 13 mph 1010.1mb 60f 56f
4:12 10 13 mph 1010.2mb 60f 56f
4:06 10 13 mph 1010.3mb 60f 56f
4:00 9 13 mph 1010.3mb 60f 56f
3:54 9 13 mph 1010.5mb 60f 57f
3:48 11 13 mph 1010.4mb 60f 56f
3:42 7 10 mph 1010.6mb 60f 57f
3:36 9 11 mph 1010.6mb 60f 57f
3:30 9 10 mph 1010.6mb 60f 56f
3:24 8 10 mph 1010.5mb 60f 56f
3:18 9 11 mph 1010.6mb 60f 56f
3:12 9 11 mph 1010.6mb 60f 56f
3:06 6 8 mph 1010.6mb 60f 56f
3:00 6 9 mph 1010.6mb 60f 56f
2:54 8 9 mph 1010.6mb 60f 56f
2:48 6 7 mph 1010.7mb 60f 56f
2:42 7 9 mph 1010.8mb 60f 56f
2:36 7 8 mph 1010.9mb 60f 56f
2:30 7 8 mph 1011mb 60f 56f
2:24 7 9 mph 1011mb 60f 56f
2:18 7 10 mph 1011.1mb 60f 56f
2:12 8 9 mph 1011.1mb 60f 56f
2:06 9 11 mph 1011.3mb 60f 56f
2:00 9 11 mph 1011.3mb 60f 56f
1:54 10 13 mph 1011.3mb 60f 56f
1:48 10 13 mph 1011.3mb 60f 56f
1:42 10 13 mph 1011.4mb 61f 56f
1:36 11 13 mph 1011.5mb 61f 56f
1:30 9 11 mph 1011.6mb 61f 56f
1:24 8 11 mph 1011.8mb 61f 56f
1:18 8 9 mph 1011.6mb 61f 56f
1:12 9 10 mph 1011.6mb 61f 56f
1:06 7 11 mph 1011.7mb 61f 56f
1:00 8 10 mph 1011.7mb 61f 56f
12:54 7 8 mph 1011.8mb 61f 56f
12:48 7 9 mph 1011.8mb 61f 56f
12:42 8 9 mph 1011.9mb 61f 56f
12:36 8 9 mph 1011.8mb 61f 56f
12:30 7 9 mph 1011.8mb 61f 57f
12:24 8 9 mph 1011.8mb 61f 57f
12:18 8 11 mph 1011.9mb 61f 57f
12:12 9 11 mph 1011.9mb 61f 57f
12:06 7 9 mph 1012.1mb 61f 57f
12:00 7 10 mph 1012.2mb 61f 57f
vie 04/29 11:54 6 9 mph 1012.2mb 61f 58f
11:48 6 9 mph 1012.1mb 61f 58f
11:42 7 9 mph 1012.2mb 61f 58f
11:36 6 8 mph 1012.2mb 61f 58f
11:30 5 8 mph 1012.1mb 61f 58f
11:24 6 9 mph 1012.1mb 61f 58f
11:18 6 7 mph 1012.1mb 62f 58f
11:12 5 8 mph 1012.2mb 62f 58f
11:06 6 8 mph 1012.2mb 62f 58f
11:00 6 8 mph 1012.2mb 62f 58f
10:54 7 9 mph 1012.4mb 62f 58f
10:48 6 8 mph 1012.3mb 62f 58f
10:42 5 7 mph 1012.4mb - -
10:36 6 8 mph 1012.4mb - -
10:30 6 9 mph 1012.6mb 62f 58f
10:24 6 9 mph 1012.7mb 62f 58f
10:18 6 8 mph 1012.7mb 62f 58f
10:12 6 9 mph 1012.7mb 62f 58f
10:06 8 11 mph 1012.8mb 62f 58f
10:00 9 11 mph 1012.8mb 62f 58f
9:54 11 14 mph 1012.9mb 62f 58f
9:48 7 11 mph 1012.9mb 62f 58f
9:42 10 13 mph 1012.9mb 62f 58f
9:36 7 10 mph 1012.9mb 62f 58f
9:30 8 11 mph 1012.8mb 62f 58f
9:24 10 11 mph 1012.7mb 62f 58f
9:18 7 9 mph 1012.8mb 62f 58f
9:12 7 8 mph 1012.8mb 62f 57f
9:06 6
mph
1012.9mb 62f 57f
9:00 3 5 mph 1012.9mb 62f 57f
8:54 1 2 mph 1012.9mb 62f 56f
8:48  -  2 mph 1012.9mb 62f 57f
8:42 2 5 mph 1012.9mb 62f 57f
8:36 3 6 mph 1012.9mb 62f 57f
8:30 6 8 mph 1013mb 62f 57f
8:24 7 10 mph 1013mb 62f 57f
8:18 10 11 mph 1012.9mb 62f 57f
8:12 11 15 mph 1013mb 62f 57f
8:06 14 15 mph 1013mb 62f 57f
8:00  -  mph - 62f 57f
7:54  -  mph - 62f 57f
7:48  -  mph - 62f 57f
7:42 13 14 mph 1013mb 62f -
7:36 13 14 mph 1013.1mb 62f -
7:30 10 13 mph 1013.1mb 62f -
7:24 13 14 mph 1013.1mb 62f -
7:18 11 13 mph 1013.2mb 62f 57f
7:12 10 13 mph 1013.2mb 62f 57f
7:06 13 14 mph 1013.1mb 62f 57f
7:00  -  mph 1013.1mb 62f 57f
6:54  -  mph 1013.1mb 62f 58f
6:48  -  mph 1013.2mb 62f 58f
6:42 10 13 mph 1013.3mb 62f -
6:36 11 13 mph 1013.3mb 63f -
6:30  -  mph - 62f -
6:24  -  mph - 62f -
6:18 11 13 mph 1013.5mb 62f 58f
6:12 10 13 mph 1013.5mb 62f 58f
6:06 10 13 mph 1013.5mb 62f 57f
6:00  -  mph 1013.6mb 62f 57f
5:54  -  mph 1013.6mb 62f 57f
5:48  -  mph 1013.8mb 62f 57f
5:42  -  mph 1013.8mb - -
5:36  -  mph 1013.9mb - -
5:30  -  mph 1014mb 62f -
5:24  -  mph 1014.1mb 62f -
5:18  -  mph 1014.2mb 62f -
5:12  -  mph 1014.3mb 62f 57f
5:06  -  mph 1014.3mb 62f 57f
5:00  -  mph 1014.3mb 62f -
4:54  -  mph 1014.4mb 62f -
4:48  -  mph 1014.5mb 62f -
4:42  -  mph 1014.6mb - -
4:36  -  mph 1014.6mb - -
4:30 15 16 mph 1014.7mb 62f 57f
4:24 14 16 mph 1014.7mb 62f 57f
4:18 15 16 mph 1014.8mb 62f 57f
4:12  -  mph 1014.8mb 62f 58f
4:06  -  mph 1014.9mb 62f 58f
4:00  -  mph 1015mb 62f 58f
3:54  -  mph 1015.1mb 61f 58f
3:48  -  mph 1015.2mb 61f 57f
3:42  -  mph 1015.3mb 61f -
3:36  -  mph 1015.4mb 61f -
3:30 15 17 mph 1015.5mb 61f -
3:24 15
mph
1015.6mb 61f -
3:18 14 16 mph - - -
3:12 15 16 mph 1015.7mb 61f 58f
3:06 15 16 mph 1015.8mb 61f 58f
3:00  -  mph 1015.7mb 61f 58f
2:54  -  mph 1015.7mb 61f 60f
2:48 10 11 mph 1015.9mb 61f -
2:42 10 11 mph 1015.9mb 61f -
2:36 9 11 mph 1016mb 61f -
2:30 10 11 mph 1016.1mb 61f 60f
2:24 10 11 mph 1016.2mb 61f 60f
2:18 10
mph
1016.2mb 61f 59f
2:12 9 10 mph 1016.2mb 60f 60f
2:06 9 10 mph 1016.3mb 60f 60f
2:00 9
mph
1016.3mb 60f 60f
1:54 8 9 mph 1016.3mb 60f 59f
1:48 8 9 mph 1016.4mb 60f 59f
1:42 8 9 mph 1016.4mb 60f 59f
1:36 8 9 mph 1016.5mb 60f 59f
1:30 7 8 mph 1016.5mb 60f 59f
1:24 8 9 mph 1016.5mb 60f 59f
1:18 8
mph
1016.6mb 60f 59f
1:12 7 8 mph 1016.6mb 60f 59f
1:06 8 9 mph 1016.7mb 60f 59f
1:00 8 9 mph 1016.8mb 60f 59f
12:54 7 9 mph 1016.8mb 60f 59f
12:48 7 8 mph 1016.9mb 60f 59f
12:42 7 8 mph 1017mb 60f 59f
12:36 8 9 mph 1017.1mb 60f 59f
12:30 8 9 mph 1017.2mb 60f 59f
12:24 8 9 mph 1017.2mb 60f 59f
12:18 8 9 mph 1017.3mb 60f 59f
12:12 8 9 mph 1017.3mb 60f 59f
12:06 8 9 mph 1017.4mb 60f 59f
12:00 8 9 mph 1017.5mb 59f 59f
11:54 9 10 mph 1017.6mb 59f 59f
11:48 9 10 mph 1017.6mb 59f 59f
11:42 9 10 mph 1017.6mb 59f 59f
11:36 9 10 mph 1017.6mb 59f 59f
11:30 10 11 mph 1017.5mb 59f 59f
11:24 10 11 mph 1017.5mb 59f 59f
11:18 10 11 mph 1017.4mb 59f 58f
11:12 10
mph
1017.3mb 59f 59f
11:06 10 11 mph 1017.3mb 58f 58f
11:00 10 11 mph 1017.3mb 58f 58f
10:54 11 13 mph 1017.5mb 58f 58f
10:48 11 13 mph 1017.6mb 58f 58f
10:42 11 13 mph 1017.6mb 58f 58f
10:36 11 13 mph 1017.6mb 58f 58f
10:30 11 13 mph 1017.5mb 58f 58f